Weather observations for the past three days for
College Park Airport
Imperial (Metric)
Date Time (edt) Wind (mph) Vis. (mi.) Weather Sky Cond. Temperature (ºF) Relative Humidity Wind Chill (°F) Heat Index (°F) Pressure Precipitation (in)
Air Dwpt 6 hour altimeter (in) sea level (mb) 1 hr 3 hr 6 hr
Max. Min.
03 00:15 NW 7 10.00 Fair CLR 48.9 32.4 53% 46 29.96 0.0
02 23:55 NW 6 10.00 Mostly Cloudy BKN095 49.8 32.2 51% 48 29.96 0.0
02 23:35 NW 10 10.00 Overcast OVC095 50.7 32.2 49% 29.95 0.0
02 23:15 N 8 10.00 Overcast OVC095 51.1 32.2 49% 29.95 0.0
02 22:55 NW 7 10.00 Overcast OVC095 51.4 32.4 48% 29.95 0.0
02 22:35 NW 9 10.00 Overcast OVC095 52.2 31.8 46% 29.95 0.0
02 22:15 NW 6 10.00 Overcast OVC095 52.2 32 46% 29.95 0.0
02 21:55 NW 6 10.00 Mostly Cloudy BKN095 51.8 32.9 49% 29.94 0.0
02 21:35 NW 6 10.00 Mostly Cloudy BKN095 52 32.7 48% 29.94 0.0
02 21:15 N 5 10.00 Mostly Cloudy BKN095 53.4 31.6 44% 29.93 0.0
02 20:55 NW 5 10.00 Partly Cloudy SCT095 54 31.5 42% 29.93 0.0
02 20:35 NW 5 10.00 Fair CLR 54.3 31.1 41% 29.92 0.0
02 20:15 NW 7 10.00 Fair CLR 55.4 30.9 39% 29.91 0.0
02 19:55 NW 5 10.00 Fair CLR 55.8 30.9 61.3 55.6 39% 29.91 0.0
02 19:35 N 7 10.00 Fair CLR 56.5 30.6 37% 29.9 0.0
02 19:15 NW 9 10.00 Partly Cloudy SCT085 56.5 30.9 38% 29.9 0.0
02 18:55 NW 10 10.00 Mostly Cloudy BKN085 57 29.8 36% 29.9 0.0
02 18:35 NW 9 10.00 Overcast SCT070 OVC085 57.6 29.7 35% 29.9 0.0
02 18:15 NW 9 10.00 Mostly Cloudy BKN070 BKN085 58.1 29.8 34% 29.9 0.0
02 17:55 NW 10 10.00 Overcast OVC080 59.2 29.5 32% 29.9 0.0
02 17:35 NW 12 10.00 Mostly Cloudy BKN080 58.8 27.9 31% 29.89 0.0
02 17:15 NW 10 10.00 Mostly Cloudy BKN070 59 27.3 30% 29.89 0.0
02 16:55 NW 6 10.00 Mostly Cloudy BKN070 59.2 28.8 31% 29.88 0.0
02 16:35 N 12 10.00 Overcast OVC080 59.7 29.8 32% 29.88 0.0
02 16:15 NW 8 10.00 Mostly Cloudy BKN080 60.3 30.6 33% 29.88 0.0
02 15:55 NW 13 G 16 10.00 Mostly Cloudy BKN070 60.1 31.3 34% 29.89 0.0
02 15:35 W 8 10.00 Mostly Cloudy BKN070 57.9 30.7 36% 29.9 0.0
02 15:15 NW 5 10.00 Partly Cloudy SCT070 59.2 31.5 35% 29.91 0.0
02 14:55 NW 5 10.00 Mostly Cloudy BKN070 58.3 30.7 35% 29.92 0.0
02 14:35 N 9 10.00 Partly Cloudy SCT070 59 30.4 34% 29.93 0.0
02 14:15 W 8 10.00 Mostly Cloudy BKN070 58.6 32 37% 29.94 0.0
02 13:55 NW 6 10.00 Partly Cloudy SCT060 57.7 30.4 59 49.1 35% 29.94 0.0
02 13:35 NW 10 10.00 Partly Cloudy SCT060 58.5 32.4 37% 29.95 0.0
02 13:15 NE 7 10.00 Partly Cloudy SCT060 57.4 32.5 39% 29.95 0.0
02 12:55 NW 6 10.00 Fair CLR 56.8 32.9 40% 29.95 0.0
02 12:35 NW 8 10.00 Partly Cloudy SCT050 55.9 31.3 39% 29.96 0.0
02 12:15 NW 5 10.00 Partly Cloudy SCT050 54.9 33.3 44% 29.96 0.0
02 11:55 SW 3 10.00 Fair CLR 54.9 33.3 44% 29.97 0.0
02 11:35 N 7 10.00 Fair CLR 55.6 35.4 47% 29.97 0.0
02 11:15 NW 9 10.00 Fair CLR 54.5 34.9 48% 29.98 0.0
02 10:55 N 9 10.00 Fair CLR 54.5 34.9 48% 29.97 0.0
02 10:35 NW 9 10.00 Fair CLR 53.4 34.2 48% 29.97 0.0
02 10:15 N 9 10.00 Fair CLR 53.4 34.9 50% 29.96 0.0
02 09:55 NW 6 10.00 Fair CLR 51.6 35.4 54% 29.97 0.0
02 09:35 N 10 10.00 Fair CLR 50.7 34.9 55% 29.97 0.0
02 09:15 N 8 10.00 Fair CLR 50.5 35.8 57% 29.97 0.0
02 08:55 N 10 10.00 Fair CLR 49.8 36.1 59% 46 29.97 0.0
02 08:35 NW 9 10.00 Fair CLR 49.8 36.7 61% 47 29.97 0.0
02 08:15 NW 9 10.00 Partly Cloudy SCT080 50.2 37.2 61% 29.97 0.0
02 07:55 NW 7 10.00 Fair CLR 49.3 37 56.5 49.1 63% 47 29.97 0.0
02 07:35 NW 8 10.00 Partly Cloudy SCT100 49.1 36.3 62% 46 29.97 0.0
02 07:15 NW 9 10.00 Partly Cloudy SCT100 49.1 35.8 60% 46 29.97 0.0
02 06:55 NW 10 10.00 Mostly Cloudy BKN100 49.6 35.2 58% 46 29.96 0.0
02 06:35 NW 6 10.00 Mostly Cloudy BKN100 49.5 35.8 59% 48 29.95 0.0
02 06:15 NW 8 10.00 Fair CLR 50.2 35.6 57% 29.95 0.0
02 05:55 NW 10 G 21 10.00 Fair CLR 50.9 35.8 56% 29.94 0.0
02 05:35 NW 9 10.00 Fair CLR 51.3 36.7 58% 29.93 0.0
02 05:15 N 7 G 16 10.00 Partly Cloudy SCT090 51.6 37.2 58% 29.93 0.0
02 04:55 NW 12 G 18 10.00 Mostly Cloudy SCT070 BKN100 52.5 37.6 57% 29.93 0.0
02 04:35 NW 8 10.00 Overcast BKN070 OVC100 53.4 38.8 58% 29.93 0.0
02 04:10 NW 7 10.00 Overcast OVC070 53.8 40.3 60% 29.92 0.0
02 03:55 NW 8 10.00 Overcast OVC070 54.3 40.5 60% 29.92 0.0
02 03:35 NW 6 10.00 Overcast OVC070 54.5 41.2 61% 29.92 0.0
02 03:10 NW 7 10.00 Mostly Cloudy BKN070 BKN085 54.3 41.7 63% 29.91 0.0
02 02:35 NW 7 10.00 Mostly Cloudy BKN065 BKN120 55.2 41.7 61% 29.91 0.0
02 02:15 NW 8 10.00 Overcast OVC055 56.3 42.4 60% 29.92 0.0
02 01:55 NW 7 10.00 Overcast OVC055 56.3 43.9 64 53.2 63% 29.92 0.0
02 01:35 NW 7 10.00 Overcast OVC065 56.1 44.6 65% 29.92 0.0
02 01:15 NW 7 10.00 Overcast OVC065 56.3 45.3 67% 29.92 0.0
02 00:55 Calm 10.00 Overcast OVC070 53.4 49.1 85% 29.92 0.0
02 00:35 Calm 10.00 Overcast OVC070 53.4 48.9 85% 29.93 0.0
02 00:15 Calm 10.00 Light Rain OVC070 54.3 47.8 79% 29.92 0.0
01 23:55 Calm 10.00 Light Rain OVC070 56.8 44.1 63% 29.91 0.0
01 23:35 Calm 10.00 Overcast OVC070 57.2 43 59% 29.91 0.0
01 23:15 Calm 10.00 Overcast OVC080 57.4 42.6 58% 29.89 0.0
01 22:55 SE 3 10.00 Overcast BKN080 OVC100 57.6 42.4 57% 29.89 0.0
01 22:35 S 3 10.00 Overcast BKN080 OVC120 57.7 42.1 56% 29.89 0.0
01 22:15 SE 6 10.00 Overcast SCT090 OVC120 58.1 41.9 55% 29.89 0.0
01 21:55 SE 5 10.00 Overcast OVC090 58.5 41.2 53% 29.89 0.0
01 21:35 SE 3 10.00 Overcast OVC090 59.2 40.3 50% 29.88 0.0
01 21:15 E 3 10.00 Overcast BKN090 OVC120 59.7 39.4 47% 29.88 0.0
01 20:55 SE 6 10.00 Overcast BKN100 OVC120 60.3 38.8 45% 29.86 0.0
01 20:35 SE 6 10.00 Overcast SCT100 OVC120 62.2 37.2 40% 29.85 0.0
01 20:15 SE 7 10.00 Overcast OVC110 63.7 35.4 35% 29.85 0.0
01 19:55 SE 7 10.00 Mostly Cloudy BKN110 64 34.9 67.5 63.5 34% 29.84 0.0
01 19:35 SE 6 10.00 Mostly Cloudy BKN110 64.9 34.7 33% 29.84 0.0
01 19:15 SE 6 10.00 Partly Cloudy SCT120 65.1 34.5 32% 29.84 0.0
01 18:55 SE 7 10.00 Partly Cloudy SCT120 66 35.4 32% 29.84 0.0
01 18:35 S 7 10.00 Fair CLR 66.6 34.5 31% 29.84 0.0
01 18:15 S 5 10.00 Fair CLR 66.9 34.5 30% 29.85 0.0
01 17:55 S 8 10.00 Fair CLR 66.7 34.3 30% 29.85 0.0
01 17:35 S 8 10.00 Fair CLR 66.7 34.9 31% 29.86 0.0
01 17:15 S 8 10.00 Fair CLR 67.1 34.9 30% 29.85 0.0
01 16:55 S 8 10.00 Fair CLR 66.4 35.4 32% 29.85 0.0
01 16:35 S 7 10.00 Fair CLR 66.6 34 30% 29.86 0.0
01 16:15 SW 10 10.00 Fair CLR 66.9 34.2 30% 29.87 0.0
01 15:55 S 8 10.00 Fair CLR 66.2 34.3 31% 29.89 0.0
01 15:35 S 8 10.00 Fair CLR 65.7 36.9 35% 29.89 0.0
01 15:15 S 8 10.00 Fair CLR 65.7 34 31% 29.9 0.0
01 14:55 SW 7 10.00 Fair CLR 64.8 33.4 31% 29.91 0.0
01 14:35 SW 8 10.00 Fair CLR 64.9 32.9 30% 29.92 0.0
01 14:15 SW 8 10.00 Fair CLR 64.2 34.2 33% 29.92 0.0
01 13:55 S 8 10.00 Fair CLR 63.5 34.3 64.2 47.3 34% 29.93 0.0
01 13:35 SW 9 10.00 Fair CLR 63.3 33.8 33% 29.93 0.0
01 13:15 W 7 10.00 Fair CLR 62.4 34.3 35% 29.94 0.0
01 12:55 S 5 10.00 Fair CLR 61.3 32.7 34% 29.95 0.0
01 12:35 S 3 10.00 Fair CLR 61.7 32.5 34% 29.95 0.0
01 12:15 SW 3 10.00 Fair CLR 61.2 34 36% 29.96 0.0
01 11:55 SE 7 10.00 Fair CLR 59.7 33.4 37% 29.97 0.0
01 11:35 Calm 10.00 Fair CLR 59 32 36% 29.98 0.0
01 11:15 NW 6 10.00 Fair CLR 58.6 34.9 41% 29.99 0.0
01 10:55 NE 5 10.00 Fair CLR 57.2 33.4 41% 29.99 0.0
01 10:35 N 5 10.00 Fair CLR 57 34.2 42% 29.99 0.0
01 10:15 N 5 10.00 Fair CLR 56.5 34.2 43% 29.99 0.0
01 09:55 Calm 10.00 Fair CLR 55.8 36.1 48% 30 0.0
01 09:35 SE 3 10.00 Fair CLR 55.4 36.7 50% 30 0.0
01 09:15 Calm 10.00 Fair CLR 53.8 37.2 54% 30 0.0
01 08:55 N 6 10.00 Fair CLR 53.1 37.8 56% 30.01 0.0
01 08:35 N 7 10.00 Fair CLR 51.8 38.8 61% 30.01 0.0
01 08:15 N 5 10.00 Fair CLR 50 40.5 70% 49 30.02 0.0
01 07:55 Calm 10.00 Fair CLR 46.8 41 47.1 37.8 80% 30.01 0.0
01 07:35 Calm 10.00 Fair CLR 43.5 41 91% 30.01 0.0
01 07:15 Calm 10.00 Fair CLR 41.2 39.4 93% 30 0.0
01 06:55 Calm 10.00 Fair CLR 39.6 37.8 93% 30 0.0
01 06:35 Calm 10.00 Fair CLR 39 37.6 95% 30 0.0
01 06:15 Calm 10.00 Fair CLR 38.3 37 95% 29.99 0.0
01 05:55 Calm 10.00 Fair CLR 38.1 36.7 95% 29.99 0.0
01 05:35 Calm 10.00 Fair CLR 38.1 36.7 95% 29.99 0.0
01 05:15 Calm 10.00 Fair CLR 38.3 37 95% 29.99 0.0
01 04:55 Calm 10.00 Fair CLR 38.5 37.2 95% 29.99 0.0
01 04:35 Calm 10.00 Fair CLR 38.5 37 95% 29.99 0.0
01 04:15 Calm 10.00 Fair CLR 38.7 37.2 95% 29.99 0.0
01 03:55 Calm 10.00 Fair CLR 39 37.4 94% 29.98 0.0
01 03:35 Calm 10.00 Fair CLR 39.7 37.8 93% 29.98 0.0
01 03:15 Calm 10.00 Fair CLR 39.7 37.9 93% 29.97 0.0
01 02:55 Calm 10.00 Fair CLR 39.9 37.8 92% 29.97 0.0
01 02:35 Calm 10.00 Fair CLR 40.8 38.3 91% 29.97 0.0
01 02:15 Calm 10.00 Fair CLR 40.8 38.3 91% 29.97 0.0
01 01:55 Calm 10.00 Fair CLR 41.9 38.3 58.6 41.5 87% 29.97 0.0
01 01:35 Calm 10.00 Fair CLR 42.3 38.7 87% 29.97 0.0
01 01:15 SE 3 10.00 Fair CLR 43.3 38.8 84% 29.97 0.0
01 00:55 Calm 10.00 Fair CLR 43.3 38.7 84% 29.97 0.0
01 00:35 Calm 10.00 Fair CLR 44.2 38.7 81% 29.97 0.0
01 00:15 Calm 10.00 Fair CLR 44.4 39 81% 29.96 0.0
30 23:55 Calm 10.00 Fair CLR 45.9 38.7 76% 29.96 0.0
30 23:35 Calm 10.00 Fair CLR 46.8 38.7 74% 29.96 0.0
30 23:15 W 5 10.00 Fair CLR 51.3 36.3 57% 29.96 0.0
30 22:55 NW 5 10.00 Fair CLR 49.8 36.5 60% 49 29.96 0.0
30 22:35 Calm 10.00 Fair CLR 49.5 37.6 64% 29.96 0.0
30 22:15 N 3 10.00 Fair CLR 52.5 35.2 52% 29.95 0.0
30 21:55 NW 5 10.00 Fair CLR 53.4 35.1 50% 29.95 0.0
30 21:35 NW 7 10.00 Fair CLR 54.3 34.9 48% 29.94 0.0
30 21:15 NW 8 G 17 10.00 Fair CLR 54.7 34.7 47% 29.94 0.0
30 20:55 NW 10 G 22 10.00 Fair CLR 55.2 35.6 48% 29.93 0.0
30 20:35 NW 8 10.00 Fair CLR 56.1 37.6 50% 29.92 0.0
30 20:15 NW 15 G 25 10.00 Fair CLR 57.4 36.9 46% 29.9 0.0
30 19:55 NW 13 G 22 10.00 Fair CLR 58.8 38.1 69.4 58.8 46% 29.88 0.0
30 19:35 NW 12 G 22 10.00 Fair CLR 60.8 38.7 44% 29.86 0.0
30 19:15 W 14 G 20 10.00 Fair CLR 62.2 37.2 40% 29.85 0.0
30 18:55 W 14 G 22 10.00 Fair CLR 63.3 37.2 38% 29.85 0.0
30 18:35 W 10 G 21 10.00 Fair CLR 64.4 37.2 37% 29.83 0.0
30 18:15 NW 13 G 20 10.00 Fair CLR 65.3 36.5 35% 29.83 0.0
30 17:55 W 10 G 21 10.00 Partly Cloudy SCT085 66.2 37.2 34% 29.81 0.0
30 17:35 W 13 G 21 10.00 Partly Cloudy SCT085 66 36.1 33% 29.81 0.0
30 17:15 W 12 G 21 10.00 Mostly Cloudy BKN085 66.9 34.3 30% 29.8 0.0
30 16:55 W 12 G 17 10.00 Mostly Cloudy BKN075 66.4 34.3 31% 29.79 0.0
30 16:35 NW 12 G 20 10.00 Mostly Cloudy BKN075 67.5 34.9 30% 29.79 0.0
30 16:15 W 13 G 23 10.00 Mostly Cloudy BKN075 66.9 34.5 30% 29.78 0.0
30 15:55 W 10 10.00 Mostly Cloudy BKN075 68.5 34.5 29% 29.78 0.0
30 15:35 NW 14 G 21 10.00 Mostly Cloudy BKN075 67.3 35.2 31% 29.78 0.0
30 15:15 W 10 G 21 10.00 Overcast OVC065 68 37 32% 29.77 0.0
30 14:55 NW 12 G 21 10.00 Mostly Cloudy BKN065 66.7 37.9 35% 29.78 0.0
30 14:35 NW 10 G 17 10.00 Partly Cloudy SCT065 67.1 37.8 34% 29.78 0.0
30 14:15 W 14 G 21 10.00 Mostly Cloudy BKN065 BKN080 66.2 37.4 35% 29.78 0.0
30 13:55 NW 13 G 20 10.00 Partly Cloudy SCT065 SCT080 67.8 38.5 68.7 54.1 34% 29.78 0.0
30 13:35 NW 16 G 23 10.00 Partly Cloudy SCT065 66.4 39 37% 29.79 0.0
30 13:15 W 10 G 20 10.00 Partly Cloudy SCT055 67.1 41.5 40% 29.8 0.0
30 12:55 NW 14 G 18 10.00 Mostly Cloudy BKN055 64.6 39.6 40% 29.8 0.0
30 12:35 W 15 G 22 10.00 Partly Cloudy SCT055 65.3 39.6 39% 29.8 0.0
30 12:15 W 13 G 20 10.00 Partly Cloudy SCT055 65.3 40.5 40% 29.81 0.0
30 11:55 W 10 G 22 10.00 Mostly Cloudy BKN055 65.3 41.5 42% 29.81 0.0
30 11:35 W 12 G 21 10.00 Mostly Cloudy BKN055 64.2 41.2 43% 29.82 0.0
30 11:15 W 10 G 23 10.00 Partly Cloudy SCT055 63.7 39.2 41% 29.82 0.0
30 10:55 W 16 G 24 10.00 Fair CLR 64.4 41.9 44% 29.83 0.0
30 10:35 W 13 G 18 10.00 Fair CLR 63.5 44.2 50% 29.82 0.0
30 10:15 W 9 10.00 Fair CLR 62.6 47.3 58% 29.82 0.0
30 09:55 W 9 G 17 10.00 Fair CLR 61.5 47.1 59% 29.83 0.0
30 09:35 NW 8 10.00 Fair CLR 61.2 49.1 65% 29.82 0.0
30 09:15 W 10 10.00 Fair CLR 59.9 49.6 69% 29.81 0.0
30 08:55 W 8 10.00 Fair CLR 58.3 51.1 77% 29.81 0.0
30 08:35 W 6 10.00 Fair CLR 55.8 51.3 85% 29.8 0.0
30 08:15 W 8 10.00 Fair CLR 54.9 52.5 92% 29.8 0.0
30 07:55 Calm 10.00 Fair CLR 53.8 53.1 54 48.4 97% 29.79 0.0
30 07:35 Calm 5.00 Fog/Mist CLR 51.6 51.1 98% 29.8 0.0
30 07:15 Calm 3.50 Fog/Mist CLR 50.4 49.8 98% 29.79 0.0
30 06:55 Calm 4.00 Fog/Mist CLR 49.6 49.1 98% 29.8 0.0
30 06:35 Calm 1.25 Fog/Mist VV007 48.9 48.4 98% 29.79 0.0
30 06:15 Calm 0.25 Fog VV005 48.7 48.2 98% 29.78 0.0
30 05:55 Calm 3.00 Fog/Mist CLR 48.9 48.4 98% 29.78 0.0
30 05:35 Calm 1.25 Fog/Mist BKN004 49.3 48.7 98% 29.78 0.0
30 05:15 Calm 0.25 Fog OVC004 49.6 49.3 99% 29.78 0.0
30 04:55 Calm 1.25 Fog/Mist VV007 50.4 49.8 98% 29.78 0.0
30 04:35 Calm 4.00 Fog/Mist SCT007 SCT022 SCT033 50.9 50.4 98% 29.78 0.0
30 04:15 Calm 7.00 Overcast BKN009 BKN022 OVC027 51.3 50.7 98% 29.76 0.0
30 03:55 Calm 7.00 Overcast OVC009 51.1 50.4 97% 29.76 0.0
30 03:35 Calm 7.00 Overcast OVC009 50.9 50.4 98% 29.76 0.0
30 03:15 Calm 7.00 Fog/Mist BKN011 OVC032 50.5 50 98% 29.76 0.0
30 02:55 Calm 5.00 Fog/Mist SCT003 BKN011 BKN031 50.2 49.5 97% 29.76 0.0
30 02:35 Calm 0.50 Fog BKN003 50 49.3 97% 29.76 0.0
30 02:15 Calm 0.75 Fog/Mist BKN003 50.2 49.5 97% 29.75 0.0
30 01:50 Calm 1.75 Fog/Mist SCT004 SCT007 51.1 50.4 56.5 49.3 97% 29.76 0.0 0.04
30 01:35 N 3 0.25 Fog BKN004 49.8 49.1 97% 29.76 0.0
30 01:15 Calm 0.75 Fog/Mist SCT004 BKN023 51.8 50.9 97% 29.77 0.0
30 00:55 Calm 10.00 Overcast OVC020 52.7 51.8 97% 29.77 0.0
30 00:35 Calm 10.00 Mostly Cloudy BKN020 BKN110 52.2 51.3 97% 29.78 0.0
Date Time (edt) Wind (mph) Vis. (mi.) Weather Sky Cond. Air Dwpt Max. Min. Relative Humidity Wind Chill (°F) Heat Index (°F) altimeter (in) sea level (mb) 1 hr 3 hr 6 hr
6 hour
Temperature (ºF) Pressure Precipitation (in)